Time;durP1;ratioP1;P1;durP2;ratioP2;P2;SDS_P1;SDS_P2;PMS_P1;PMS_P2;Temp;Humidity;BMP_temperature;BMP_pressure;BME280_temperature;BME280_humidity;BME280_pressure;Samples;Min_cycle;Max_cycle;Signal;HPM_P1;HPM_P2
2021/05/07 00:08:33;;;;;;;16.90;7.90;;;;;;;5.38;100.00;99362.20;715401;1199;114869;-77
2021/05/07 00:23:54;;;;;;;13.00;7.40;;;;;;;5.22;100.00;99362.61;715655;1201;114882;-78
2021/05/07 00:39:14;;;;;;;12.83;7.87;;;;;;;5.36;100.00;99364.08;716783;1174;113370;-77
2021/05/07 00:54:35;;;;;;;10.88;6.88;;;;;;;5.16;100.00;99356.14;715836;1200;114826;-78
2021/05/07 01:09:56;;;;;;;10.93;7.33;;;;;;;5.25;100.00;99339.80;716547;1200;113824;-80
2021/05/07 01:25:18;;;;;;;11.28;6.90;;;;;;;5.27;100.00;99337.06;716503;1180;112974;-79
2021/05/07 01:40:41;;;;;;;11.45;7.23;;;;;;;5.47;100.00;99325.84;715837;1202;114404;-79
2021/05/07 01:56:02;;;;;;;10.63;6.73;;;;;;;5.43;100.00;99332.25;715672;1196;114710;-78
2021/05/07 02:11:22;;;;;;;13.75;7.55;;;;;;;5.57;100.00;99331.13;715452;1202;113555;-78
2021/05/07 02:26:43;;;;;;;9.53;6.18;;;;;;;5.59;100.00;99302.38;715467;1182;113463;-78
2021/05/07 02:42:03;;;;;;;8.45;6.00;;;;;;;5.52;100.00;99290.81;715548;1197;114489;-79
2021/05/07 02:57:24;;;;;;;16.58;8.30;;;;;;;5.74;100.00;99285.50;715535;1196;114487;-78
2021/05/07 03:12:44;;;;;;;12.17;5.87;;;;;;;5.77;100.00;99279.21;715478;1200;113365;-78
2021/05/07 03:28:05;;;;;;;9.03;5.28;;;;;;;5.87;100.00;99279.25;715387;1202;114580;-78
2021/05/07 03:43:26;;;;;;;8.45;5.18;;;;;;;5.99;100.00;99281.67;715116;1174;113114;-78
2021/05/07 03:58:46;;;;;;;9.73;6.33;;;;;;;6.06;100.00;99281.13;714959;1177;113113;-78
2021/05/07 04:14:07;;;;;;;11.70;8.25;;;;;;;6.14;100.00;99274.33;715191;1175;113002;-78
2021/05/07 04:29:28;;;;;;;36.20;15.20;;;;;;;6.32;100.00;99271.93;715374;1185;114045;-78
2021/05/07 04:44:48;;;;;;;46.68;24.73;;;;;;;6.62;100.00;99283.23;715334;1174;113334;-78
2021/05/07 05:15:51;;;;;;;10.35;6.93;;;;;;;7.15;100.00;99297.71;713913;1168;113992;-74
2021/05/07 05:31:13;;;;;;;25.93;13.73;;;;;;;7.36;100.00;99314.99;712527;1202;114177;-74
2021/05/07 05:46:38;;;;;;;17.58;10.45;;;;;;;7.57;100.00;99298.36;712437;1202;113611;-80
2021/05/07 06:01:59;;;;;;;15.65;9.13;;;;;;;7.98;100.00;99317.23;712869;1205;113788;-78
2021/05/07 06:17:20;;;;;;;17.35;10.70;;;;;;;8.54;100.00;99314.69;712667;1203;114013;-79
2021/05/07 06:32:41;;;;;;;26.05;11.68;;;;;;;8.55;100.00;99324.18;712924;1202;113552;-80
2021/05/07 06:48:02;;;;;;;27.15;12.65;;;;;;;8.95;100.00;99328.23;713728;1202;114827;-78
2021/05/07 07:03:23;;;;;;;16.93;9.98;;;;;;;9.22;100.00;99319.47;713159;1205;115321;-79
2021/05/07 07:18:44;;;;;;;17.45;9.80;;;;;;;9.76;100.00;99315.97;713096;1202;113964;-77
2021/05/07 07:34:05;;;;;;;14.48;7.75;;;;;;;10.09;100.00;99331.89;712462;1178;113523;-77
2021/05/07 07:49:25;;;;;;;32.50;17.58;;;;;;;10.20;99.86;99329.02;712216;1180;113862;-78
2021/05/07 08:04:46;;;;;;;18.00;10.93;;;;;;;10.66;98.87;99333.97;712388;1202;115688;-79
2021/05/07 08:20:07;;;;;;;40.40;18.47;;;;;;;12.02;94.72;99331.95;712819;1202;114185;-79
2021/05/07 08:35:28;;;;;;;423.65;125.93;;;;;;;12.01;89.78;99346.91;715842;1176;113859;-82
2021/05/07 08:50:49;;;;;;;23.15;13.95;;;;;;;12.11;88.18;99344.89;715222;1178;114734;-80
2021/05/07 09:06:16;;;;;;;24.13;14.00;;;;;;;12.36;84.92;99355.34;713428;1202;113780;-78
2021/05/07 09:21:41;;;;;;;19.58;12.08;;;;;;;12.14;82.58;99355.09;713194;1205;115522;-78
2021/05/07 09:37:13;;;;;;;12.03;8.45;;;;;;;11.26;82.88;99369.70;713419;1205;114226;-78
2021/05/07 09:52:33;;;;;;;12.30;8.90;;;;;;;11.08;83.46;99367.20;712719;1202;114504;-74
2021/05/07 10:07:55;;;;;;;11.15;7.80;;;;;;;10.98;85.49;99377.86;712909;1202;114091;-74
2021/05/07 10:23:21;;;;;;;20.93;10.20;;;;;;;11.10;84.48;99383.63;713058;1202;114597;-74
2021/05/07 10:38:49;;;;;;;14.33;11.33;;;;;;;10.71;84.47;99397.27;713174;1202;114627;-75
2021/05/07 10:54:14;;;;;;;61.03;22.13;;;;;;;10.80;84.75;99383.20;712815;1205;113895;-74
2021/05/07 11:09:34;;;;;;;13.47;8.80;;;;;;;10.78;82.83;99402.70;712815;1202;115540;-75
2021/05/07 11:24:55;;;;;;;71.90;29.70;;;;;;;10.41;77.93;99420.42;712912;1202;113698;-74
2021/05/07 11:40:16;;;;;;;79.75;37.38;;;;;;;9.29;82.83;99440.92;714806;1177;113851;-75
2021/05/07 11:55:37;;;;;;;72.73;36.73;;;;;;;9.65;87.94;99463.70;712505;1202;114317;-75
2021/05/07 12:11:09;;;;;;;154.55;63.95;;;;;;;9.41;90.15;99444.16;712737;1202;113904;-76
2021/05/07 12:26:30;;;;;;;25.83;15.63;;;;;;;9.66;90.57;99453.06;713199;1202;113987;-76
2021/05/07 12:41:52;;;;;;;16.85;9.88;;;;;;;11.12;91.22;99459.58;713399;1202;114439;-74
2021/05/07 12:57:13;;;;;;;14.90;8.90;;;;;;;12.25;83.88;99466.17;712960;1202;113825;-76
2021/05/07 13:12:33;;;;;;;10.38;5.63;;;;;;;11.74;79.08;99461.84;713163;1196;113705;-76
2021/05/07 13:27:54;;;;;;;12.10;6.97;;;;;;;11.58;77.22;99467.91;713254;1202;113797;-76
2021/05/07 13:43:14;;;;;;;15.25;8.25;;;;;;;10.84;78.25;99472.92;713309;1203;115173;-76
2021/05/07 13:58:35;;;;;;;10.60;7.60;;;;;;;10.49;79.45;99472.91;713660;1202;114817;-76
2021/05/07 14:13:55;;;;;;;32.57;15.67;;;;;;;10.37;81.06;99483.79;713812;1177;113734;-77
2021/05/07 14:29:15;;;;;;;20.60;9.80;;;;;;;10.63;82.88;99478.55;714190;1205;113906;-74
2021/05/07 14:44:36;;;;;;;15.13;9.23;;;;;;;10.30;83.38;99480.92;713596;1202;115276;-74
2021/05/07 14:59:56;;;;;;;17.00;9.00;;;;;;;10.06;83.63;99498.11;713157;1203;113893;-74
2021/05/07 15:15:19;;;;;;;26.88;15.98;;;;;;;10.01;85.82;99510.03;712740;1202;115205;-74
2021/05/07 15:30:44;;;;;;;13.88;7.58;;;;;;;9.79;87.75;99525.20;713164;1202;115449;-74
2021/05/07 15:46:05;;;;;;;18.57;11.87;;;;;;;9.67;89.37;99550.78;712930;1202;113623;-74
2021/05/07 16:01:25;;;;;;;22.83;14.83;;;;;;;9.51;86.19;99561.08;713110;1202;113784;-74
2021/05/07 16:16:51;;;;;;;116.53;41.47;;;;;;;9.47;83.81;99576.25;713331;1202;113860;-73
2021/05/07 16:32:16;;;;;;;33.75;24.60;;;;;;;9.32;85.13;99605.52;713380;1202;113957;-75
2021/05/07 16:47:37;;;;;;;14.20;10.40;;;;;;;8.81;88.11;99632.92;713276;1181;113754;-76
2021/05/07 17:02:58;;;;;;;18.55;12.03;;;;;;;7.73;98.38;99665.91;712979;1202;114138;-76
2021/05/07 17:18:19;;;;;;;58.38;29.88;;;;;;;7.14;100.00;99709.98;713313;1202;114479;-76
2021/05/07 17:33:39;;;;;;;43.40;22.70;;;;;;;6.86;100.00;99734.88;713141;1203;114745;-76
2021/05/07 17:49:00;;;;;;;25.53;12.33;;;;;;;6.73;100.00;99763.72;713046;1193;113940;-73
2021/05/07 18:04:22;;;;;;;138.37;52.30;;;;;;;6.49;100.00;99775.14;712944;1202;115078;-77
2021/05/07 18:19:43;;;;;;;31.00;13.93;;;;;;;6.48;100.00;99783.94;713157;1202;115338;-72
2021/05/07 18:35:04;;;;;;;143.80;50.88;;;;;;;6.35;100.00;99819.69;713494;1202;115168;-75
2021/05/07 18:50:28;;;;;;;157.63;61.60;;;;;;;6.26;100.00;99840.30;713151;1202;114943;-75
2021/05/07 19:05:49;;;;;;;77.45;32.90;;;;;;;6.44;100.00;99856.30;713139;1205;114519;-75
2021/05/07 19:21:09;;;;;;;24.73;12.85;;;;;;;6.41;100.00;99866.13;712826;1202;113922;-76
2021/05/07 19:36:30;;;;;;;29.33;12.97;;;;;;;6.32;100.00;99873.70;713008;1203;114338;-75
2021/05/07 19:51:50;;;;;;;21.45;9.80;;;;;;;6.26;100.00;99883.77;712936;1203;114768;-75
2021/05/07 20:07:11;;;;;;;20.40;8.85;;;;;;;6.09;100.00;99893.68;713184;1201;114716;-74
2021/05/07 20:22:37;;;;;;;21.58;9.48;;;;;;;5.87;100.00;99899.63;712726;1202;114811;-74
2021/05/07 20:38:02;;;;;;;25.85;12.30;;;;;;;5.60;100.00;99897.31;712578;1178;113627;-77
2021/05/07 20:53:23;;;;;;;19.45;9.35;;;;;;;5.52;100.00;99910.03;713246;1206;114943;-79
2021/05/07 21:08:44;;;;;;;26.60;10.40;;;;;;;5.35;100.00;99940.72;714124;1188;114149;-76
2021/05/07 21:24:05;;;;;;;27.70;11.85;;;;;;;5.39;100.00;99952.56;713237;1185;113786;-77
2021/05/07 21:39:25;;;;;;;17.97;9.53;;;;;;;5.60;100.00;99947.58;713461;1202;113937;-76
2021/05/07 21:54:46;;;;;;;19.05;8.25;;;;;;;5.65;100.00;99955.06;714234;1177;113435;-76
2021/05/07 22:10:07;;;;;;;15.40;7.90;;;;;;;5.79;100.00;99959.25;715656;1202;115166;-72
2021/05/07 22:25:27;;;;;;;14.00;9.20;;;;;;;5.78;100.00;99971.45;714117;1177;113826;-73
2021/05/07 22:40:48;;;;;;;22.90;12.45;;;;;;;5.65;100.00;99973.28;714280;1203;113708;-73
2021/05/07 22:56:08;;;;;;;23.25;13.35;;;;;;;5.48;100.00;99997.91;713022;1202;113831;-73
2021/05/07 23:11:28;;;;;;;22.80;13.30;;;;;;;5.36;100.00;99998.77;713087;1206;113794;-72
2021/05/07 23:26:49;;;;;;;18.57;9.30;;;;;;;5.20;100.00;99999.88;712763;1202;115141;-75
2021/05/07 23:42:09;;;;;;;20.50;9.85;;;;;;;5.00;100.00;100029.83;712443;1202;113707;-73
2021/05/07 23:57:30;;;;;;;13.60;6.70;;;;;;;4.78;100.00;100031.31;712447;1178;114628;-74
